Sarah Desgagnes — XJAB — position and weather

sailwx.info

Track history (hours):
 
Tides and Currents Weather Stations Pressure Air Temp Water Temp Dewpoint Dewpoint Depression Visibility Wind Speed Wind Dir Waves Ship Positions

Sarah Desgagnes

Last reported at 2015-Aug-27 12:29 UTC. Time now 2015-Aug-31 06:50 UTC.
Position N 51°26' W 056°38'.

Length 148 m; draft 10.1 m.

Type: Tanker. MMSI: 316012308.

Date/timePositionNaut miles runAvg speedWind from/ knotsBaromVisibWave heightAir tempDewpointWater temp
2015-Aug-27 12:29N 51°26' W 056°38'1415.1
2015-Aug-27 11:34N 51°18' W 056°56'1514.6
2015-Aug-27 10:33N 51°10' W 057°15'1514.9
2015-Aug-27 09:34N 51°00' W 057°34'1514.8
2015-Aug-27 08:34N 50°49' W 057°50'1514.6
2015-Aug-27 07:33N 50°39' W 058°05'1514.7
2015-Aug-27 06:33N 50°28' W 058°22'2014.6
2015-Aug-27 05:11N 50°13' W 058°43'914.5
2015-Aug-27 04:34N 50°07' W 058°52'5313.1
2015-Aug-27 00:33N 49°53' W 060°11'  
2015-Aug-17 23:24N 50°58' W 057°49'1214.6
2015-Aug-17 22:33N 51°06' W 057°35'1514.8
2015-Aug-17 21:33N 51°15' W 057°15'1414.5
2015-Aug-17 20:33N 51°23' W 056°56'  
Track history (hours):
 
Tides and Currents Weather Stations Pressure Air Temp Water Temp Dewpoint Dewpoint Depression Visibility Wind Speed Wind Dir Waves Ship Positions

Sarah Desgagnes

Last reported at 2015-Aug-27 12:29 UTC. Time now 2015-Aug-31 06:50 UTC.
Position N 51°26' W 056°38'.

Length 148 m; draft 10.1 m.

Type: Tanker. MMSI: 316012308.

Date/timePositionNaut miles runAvg speedWind from/ knotsBaromVisibWave heightAir tempDewpointWater temp
2015-Aug-27 12:29N 51°26' W 056°38'1415.1
2015-Aug-27 11:34N 51°18' W 056°56'1514.6
2015-Aug-27 10:33N 51°10' W 057°15'1514.9
2015-Aug-27 09:34N 51°00' W 057°34'1514.8
2015-Aug-27 08:34N 50°49' W 057°50'1514.6
2015-Aug-27 07:33N 50°39' W 058°05'1514.7
2015-Aug-27 06:33N 50°28' W 058°22'2014.6
2015-Aug-27 05:11N 50°13' W 058°43'914.5
2015-Aug-27 04:34N 50°07' W 058°52'5313.1
2015-Aug-27 00:33N 49°53' W 060°11'  
2015-Aug-17 23:24N 50°58' W 057°49'1214.6
2015-Aug-17 22:33N 51°06' W 057°35'1514.8
2015-Aug-17 21:33N 51°15' W 057°15'1414.5
2015-Aug-17 20:33N 51°23' W 056°56'  

Dump ship's entire track history